createdAt,value
2019-01-25T00:00:51.049Z,1.00
2019-01-25T00:03:20.288Z,0.73
2019-01-25T00:05:49.453Z,1.32
2019-01-25T00:08:18.583Z,1.31
2019-01-25T00:10:51.558Z,0.94
2019-01-25T00:13:20.702Z,0.31
2019-01-25T00:15:51.838Z,0.42
2019-01-25T00:18:20.946Z,0.70
2019-01-25T00:20:56.136Z,1.18
2019-01-25T00:23:25.245Z,1.22
2019-01-25T00:25:56.369Z,0.87
2019-01-25T00:28:27.427Z,1.03
2019-01-25T00:30:59.039Z,1.43
2019-01-25T00:33:29.878Z,1.19
2019-01-25T00:35:59.642Z,0.39
2019-01-25T00:38:30.928Z,0.70
2019-01-25T00:41:00.256Z,0.44
2019-01-25T00:43:29.389Z,0.53
2019-01-25T00:46:00.359Z,0.39
2019-01-25T00:48:34.167Z,0.08
2019-01-25T00:51:03.428Z,1.17
2019-01-25T00:53:32.764Z,0.66
2019-01-25T00:56:02.015Z,0.85
2019-01-25T00:58:33.745Z,1.11
2019-01-25T01:01:04.895Z,1.38
2019-01-25T01:03:35.677Z,1.68
2019-01-25T01:06:05.045Z,2.08
2019-01-25T01:08:36.852Z,2.20
2019-01-25T01:11:06.005Z,2.09
2019-01-25T01:13:35.138Z,1.75
2019-01-25T01:16:08.165Z,1.09
2019-01-25T01:18:37.347Z,1.02
2019-01-25T01:21:06.472Z,1.70
2019-01-25T01:23:39.182Z,1.69
2019-01-25T01:26:08.363Z,1.84
2019-01-25T01:28:39.573Z,1.74
2019-01-25T01:31:11.389Z,1.72
2019-01-25T01:33:40.582Z,1.52
2019-01-25T01:36:12.268Z,1.51
2019-01-25T01:38:41.489Z,2.09
2019-01-25T01:41:16.720Z,1.44
2019-01-25T01:43:47.394Z,2.31
2019-01-25T01:46:16.527Z,1.82
2019-01-25T01:48:50.200Z,2.23
2019-01-25T01:51:20.670Z,1.94
2019-01-25T01:53:52.806Z,2.10
2019-01-25T01:56:22.268Z,2.30
2019-01-25T01:58:52.589Z,2.41
2019-01-25T02:01:23.618Z,1.77
2019-01-25T02:03:57.224Z,1.70
2019-01-25T02:06:26.863Z,1.95
2019-01-25T02:08:56.442Z,2.20
2019-01-25T02:11:25.619Z,1.79
2019-01-25T02:13:54.850Z,2.56
2019-01-25T02:16:25.319Z,2.27
2019-01-25T02:18:59.160Z,2.03
2019-01-25T02:21:33.507Z,1.91
2019-01-25T02:24:06.074Z,1.82
2019-01-25T02:26:38.821Z,1.41
2019-01-25T02:29:07.930Z,1.14
2019-01-25T02:31:37.054Z,0.56
2019-01-25T02:34:06.214Z,1.01
2019-01-25T02:36:46.929Z,1.69
2019-01-25T02:39:16.240Z,0.32
2019-01-25T02:41:45.426Z,-0.20
2019-01-25T02:44:16.297Z,-0.39
2019-01-25T02:46:45.769Z,0.05
2019-01-25T02:49:18.174Z,-0.14
2019-01-25T02:51:50.244Z,0.45
2019-01-25T02:54:26.075Z,-0.06
2019-01-25T02:56:58.119Z,-0.55
2019-01-25T02:59:30.458Z,-0.30
2019-01-25T03:01:59.759Z,0.32
2019-01-25T03:04:30.331Z,0.21
2019-01-25T03:06:59.555Z,1.05
2019-01-25T03:09:31.551Z,1.01
2019-01-25T03:12:00.707Z,1.21
2019-01-25T03:14:35.726Z,0.96
2019-01-25T03:17:08.039Z,0.57
2019-01-25T03:19:37.196Z,0.04
2019-01-25T03:22:12.575Z,0.61
2019-01-25T03:24:41.735Z,0.33
2019-01-25T03:27:11.381Z,0.13
2019-01-25T03:29:40.579Z,0.65
2019-01-25T03:32:09.798Z,0.00
2019-01-25T03:34:38.926Z,0.07
2019-01-25T03:37:17.929Z,-0.70
2019-01-25T03:39:47.473Z,-0.87
2019-01-25T03:42:16.722Z,-0.30
2019-01-25T03:44:46.169Z,-0.02
2019-01-25T03:47:15.848Z,-0.15
2019-01-25T03:49:45.748Z,0.19
2019-01-25T03:52:18.868Z,-0.48
2019-01-25T03:54:48.061Z,-0.11
2019-01-25T03:57:17.315Z,-0.48
2019-01-25T03:59:46.592Z,0.04
2019-01-25T04:02:18.690Z,0.58
2019-01-25T04:04:52.128Z,0.74
2019-01-25T04:07:22.184Z,1.12
2019-01-25T04:09:52.244Z,1.53
2019-01-25T04:12:22.058Z,0.72
2019-01-25T04:14:54.478Z,1.02
2019-01-25T04:17:23.519Z,1.51
2019-01-25T04:19:54.375Z,1.56
2019-01-25T04:22:38.664Z,1.03
2019-01-25T04:25:11.725Z,1.24
2019-01-25T04:27:43.587Z,1.21
2019-01-25T04:30:17.884Z,1.03
2019-01-25T04:32:47.368Z,0.97
2019-01-25T04:35:18.502Z,1.52
2019-01-25T04:37:48.146Z,1.26
2019-01-25T04:40:23.011Z,1.38
2019-01-25T04:42:52.347Z,1.07
2019-01-25T04:45:24.979Z,1.18
2019-01-25T04:47:55.078Z,1.26
2019-01-25T04:50:25.758Z,1.36
2019-01-25T04:52:55.642Z,1.23
2019-01-25T04:55:31.721Z,0.84
2019-01-25T04:58:17.895Z,0.90
2019-01-25T05:00:48.951Z,1.46
2019-01-25T05:03:22.619Z,1.09
2019-01-25T05:05:53.239Z,1.02
2019-01-25T05:08:22.910Z,1.38
2019-01-25T05:10:54.259Z,0.73
2019-01-25T05:13:27.951Z,0.45
2019-01-25T05:15:57.306Z,0.79
2019-01-25T05:18:28.416Z,0.94
2019-01-25T05:21:02.793Z,0.35
2019-01-25T05:23:33.956Z,0.52
2019-01-25T05:26:08.815Z,0.85
2019-01-25T05:28:39.860Z,-2.04
2019-01-25T05:31:10.874Z,0.41
2019-01-25T05:33:41.457Z,0.58
2019-01-25T05:36:10.574Z,1.01
2019-01-25T05:38:48.798Z,0.17
2019-01-25T05:41:17.993Z,0.09
2019-01-25T05:43:48.002Z,0.14
2019-01-25T05:46:17.259Z,0.55
2019-01-25T05:48:54.196Z,-0.24
2019-01-25T05:51:24.683Z,-0.32
2019-01-25T05:53:54.298Z,-0.20
2019-01-25T05:56:26.764Z,-0.23
2019-01-25T05:59:00.410Z,-0.52
2019-01-25T06:01:35.664Z,-0.05
2019-01-25T06:04:07.307Z,0.20
2019-01-25T06:06:36.452Z,0.57
2019-01-25T06:09:10.336Z,0.37
2019-01-25T06:11:40.463Z,0.92
2019-01-25T06:14:11.444Z,0.06
2019-01-25T06:16:44.559Z,-0.18
2019-01-25T06:19:13.995Z,-0.45
2019-01-25T06:21:47.674Z,-0.61
2019-01-25T06:24:17.170Z,-0.28
2019-01-25T06:26:51.754Z,-0.39
2019-01-25T06:29:21.726Z,-0.38
2019-01-25T06:31:50.873Z,0.28
2019-01-25T06:34:23.920Z,0.28
2019-01-25T06:36:53.712Z,0.51
2019-01-25T06:39:26.911Z,0.36
2019-01-25T06:41:59.072Z,-0.45
2019-01-25T06:44:33.746Z,-0.24
2019-01-25T06:47:07.122Z,0.14
2019-01-25T06:49:41.865Z,0.55
2019-01-25T06:52:11.164Z,0.18
2019-01-25T06:54:42.163Z,0.02
2019-01-25T06:57:25.986Z,0.09
2019-01-25T06:59:55.312Z,0.16
2019-01-25T07:02:34.007Z,-0.65
2019-01-25T07:05:03.741Z,0.45
2019-01-25T07:07:35.110Z,0.40
2019-01-25T07:10:07.835Z,0.14
2019-01-25T07:12:37.381Z,0.18
2019-01-25T07:15:14.280Z,0.76
2019-01-25T07:17:44.462Z,1.24
2019-01-25T07:20:24.962Z,1.25
2019-01-25T07:23:01.962Z,0.76
2019-01-25T07:25:32.288Z,1.38
2019-01-25T07:28:01.417Z,0.80
2019-01-25T07:30:30.968Z,0.76
2019-01-25T07:33:00.917Z,1.00
2019-01-25T07:35:32.482Z,1.02
2019-01-25T07:38:01.652Z,0.02
2019-01-25T07:40:31.121Z,0.74
2019-01-25T07:43:02.504Z,0.52
2019-01-25T07:45:37.996Z,0.41
2019-01-25T07:48:09.176Z,0.87
2019-01-25T07:50:38.440Z,0.47
2019-01-25T07:53:17.379Z,0.41
2019-01-25T07:55:46.611Z,-0.46
2019-01-25T07:58:19.081Z,0.57
2019-01-25T08:00:49.464Z,0.04
2019-01-25T08:03:19.190Z,0.32
2019-01-25T08:05:48.361Z,0.29
2019-01-25T08:08:19.535Z,0.45
2019-01-25T08:10:49.474Z,-0.05
2019-01-25T08:13:18.717Z,-0.35
2019-01-25T08:15:47.883Z,0.22
2019-01-25T08:18:17.046Z,0.47
2019-01-25T08:20:46.262Z,-0.09
2019-01-25T08:23:41.765Z,-0.11
2019-01-25T08:26:10.945Z,0.14
2019-01-25T08:28:40.095Z,-0.40
2019-01-25T08:31:09.246Z,-0.41
2019-01-25T08:33:39.207Z,-0.07
2019-01-25T08:36:08.865Z,0.43
2019-01-25T08:38:59.481Z,0.24
2019-01-25T08:41:30.019Z,-0.15
2019-01-25T08:44:10.249Z,-0.52
2019-01-25T08:46:39.442Z,-0.46
2019-01-25T08:49:09.801Z,0.09
2019-01-25T08:51:41.297Z,0.96
2019-01-25T08:54:10.704Z,1.65
2019-01-25T08:56:43.481Z,1.12
2019-01-25T08:59:15.681Z,1.76
2019-01-25T09:01:44.822Z,1.18
2019-01-25T09:04:14.028Z,0.68
2019-01-25T09:06:44.371Z,1.06
2019-01-25T09:09:16.264Z,1.63
2019-01-25T09:11:48.229Z,0.54
2019-01-25T09:14:19.238Z,0.83
2019-01-25T09:16:48.371Z,0.20
2019-01-25T09:19:21.763Z,0.38
2019-01-25T09:21:51.615Z,-0.03
2019-01-25T09:24:21.889Z,1.37
2019-01-25T09:26:51.525Z,1.39
2019-01-25T09:29:22.072Z,0.59
2019-01-25T09:31:54.945Z,0.51
2019-01-25T09:34:24.850Z,1.37
2019-01-25T09:36:56.739Z,1.89
2019-01-25T09:39:26.005Z,2.29
2019-01-25T09:42:00.380Z,1.89
2019-01-25T09:44:29.556Z,1.08
2019-01-25T09:47:03.702Z,1.45
2019-01-25T09:49:38.747Z,1.37
2019-01-25T09:52:11.028Z,0.98
2019-01-25T09:54:40.283Z,1.09
2019-01-25T09:57:14.109Z,1.53
2019-01-25T09:59:43.279Z,1.52
2019-01-25T10:02:12.515Z,1.91
2019-01-25T10:04:41.731Z,1.72
2019-01-25T10:07:15.988Z,1.73
2019-01-25T10:09:45.492Z,1.49
2019-01-25T10:12:15.008Z,1.67
2019-01-25T10:14:44.560Z,1.84
2019-01-25T10:17:15.107Z,1.76
2019-01-25T10:19:47.415Z,2.30
2019-01-25T10:22:21.952Z,2.65
2019-01-25T10:24:51.076Z,2.84
2019-01-25T10:27:21.345Z,2.87
2019-01-25T10:29:52.340Z,2.37
2019-01-25T10:32:28.940Z,2.53
2019-01-25T10:34:59.067Z,2.70
2019-01-25T10:37:28.224Z,2.41
2019-01-25T10:40:03.083Z,2.05
2019-01-25T10:42:32.338Z,1.95
2019-01-25T10:45:04.481Z,2.29
2019-01-25T10:47:35.104Z,2.40
2019-01-25T10:50:16.397Z,2.42
2019-01-25T10:52:45.575Z,2.85
2019-01-25T10:55:15.581Z,2.82
2019-01-25T10:57:44.781Z,2.06
2019-01-25T11:00:16.103Z,1.89
2019-01-25T11:03:01.962Z,2.48
2019-01-25T11:05:24.747Z,2.64
2019-01-25T11:07:54.816Z,2.54
2019-01-25T11:10:24.309Z,2.80
2019-01-25T11:13:00.750Z,2.43
2019-01-25T11:15:27.358Z,2.19
2019-01-25T11:17:59.533Z,2.39
2019-01-25T11:20:29.580Z,2.71
2019-01-25T11:23:00.601Z,3.11
2019-01-25T11:25:35.897Z,2.98
2019-01-25T11:28:05.818Z,3.60
2019-01-25T11:30:38.686Z,3.36
2019-01-25T11:33:10.458Z,4.48
2019-01-25T11:35:40.260Z,4.05
2019-01-25T11:38:15.275Z,4.94
2019-01-25T11:40:50.725Z,4.41
2019-01-25T11:43:21.320Z,4.42
2019-01-25T11:46:12.497Z,4.33
2019-01-25T11:48:42.227Z,4.67
2019-01-25T11:51:14.794Z,4.74
2019-01-25T11:53:43.995Z,5.65
2019-01-25T11:56:15.187Z,4.70
2019-01-25T11:58:48.621Z,5.43
2019-01-25T12:01:23.328Z,5.74
2019-01-25T12:03:53.804Z,4.80
2019-01-25T12:06:30.019Z,4.29
2019-01-25T12:09:01.335Z,5.81
2019-01-25T12:11:30.739Z,4.98
2019-01-25T12:14:00.592Z,4.78
2019-01-25T12:16:30.069Z,4.71
2019-01-25T12:19:01.705Z,4.38
2019-01-25T12:21:32.002Z,4.38
2019-01-25T12:24:01.172Z,4.77
2019-01-25T12:26:30.392Z,4.53
2019-01-25T12:29:03.699Z,5.21
2019-01-25T12:31:38.013Z,4.81
2019-01-25T12:34:07.344Z,5.38
2019-01-25T12:36:39.354Z,5.34
2019-01-25T12:39:10.239Z,5.11
2019-01-25T12:41:39.396Z,5.51
2019-01-25T12:44:09.430Z,5.04
2019-01-25T12:46:38.756Z,5.02
2019-01-25T12:49:11.745Z,5.98
2019-01-25T12:51:50.761Z,5.50
2019-01-25T12:54:23.796Z,5.20
2019-01-25T12:56:55.713Z,4.42
2019-01-25T12:59:24.950Z,3.90
2019-01-25T13:01:54.286Z,5.01
2019-01-25T13:04:26.245Z,4.33
2019-01-25T13:06:55.370Z,4.51
2019-01-25T13:09:27.162Z,4.48
2019-01-25T13:11:56.341Z,3.95
2019-01-25T13:14:26.551Z,4.51
2019-01-25T13:16:56.478Z,4.90
2019-01-25T13:19:28.598Z,5.39
2019-01-25T13:22:03.726Z,5.60
2019-01-25T13:24:35.603Z,5.47
2019-01-25T13:27:11.435Z,5.54
2019-01-25T13:29:42.818Z,5.94
2019-01-25T13:32:21.404Z,6.64
2019-01-25T13:34:50.571Z,4.73
2019-01-25T13:37:19.840Z,5.01
2019-01-25T13:39:55.631Z,5.47
2019-01-25T13:42:25.837Z,5.19
2019-01-25T13:44:55.497Z,-5.37
2019-01-25T13:47:27.603Z,4.26
2019-01-25T13:49:56.883Z,5.12
2019-01-25T13:52:26.031Z,5.72
2019-01-25T13:54:55.175Z,5.13
2019-01-25T13:57:27.900Z,4.29
2019-01-25T13:59:57.786Z,4.43
2019-01-25T14:02:27.022Z,4.38
2019-01-25T14:04:59.781Z,3.95
2019-01-25T14:07:31.073Z,3.42
2019-01-25T14:10:05.959Z,3.22
2019-01-25T14:12:37.433Z,3.00
2019-01-25T14:15:11.992Z,3.22
2019-01-25T14:17:42.121Z,3.44
2019-01-25T14:20:22.940Z,3.97
2019-01-25T14:22:48.020Z,3.73
2019-01-25T14:25:17.237Z,3.45
2019-01-25T14:27:46.874Z,3.96
2019-01-25T14:30:39.601Z,3.81
2019-01-25T14:33:12.828Z,3.88
2019-01-25T14:35:45.803Z,3.73
2019-01-25T14:38:20.303Z,3.66
2019-01-25T14:40:51.531Z,3.47
2019-01-25T14:43:20.679Z,3.61
2019-01-25T14:45:50.004Z,3.29
2019-01-25T14:48:19.293Z,2.80
2019-01-25T14:50:49.342Z,3.26
2019-01-25T14:53:27.969Z,3.03
2019-01-25T14:55:54.027Z,3.15
2019-01-25T14:58:25.359Z,3.18
2019-01-25T15:00:59.248Z,3.06
2019-01-25T15:03:30.432Z,3.46
2019-01-25T15:06:02.212Z,3.30
2019-01-25T15:08:31.826Z,3.28
2019-01-25T15:11:05.140Z,3.04
2019-01-25T15:13:35.548Z,3.18
2019-01-25T15:16:06.201Z,2.56
2019-01-25T15:18:36.704Z,3.11
2019-01-25T15:21:10.358Z,3.04
2019-01-25T15:23:39.493Z,3.26
2019-01-25T15:26:08.869Z,2.96
2019-01-25T15:28:48.205Z,2.87
2019-01-25T15:31:18.394Z,3.53
2019-01-25T15:33:50.409Z,2.83
2019-01-25T15:36:19.980Z,2.80
2019-01-25T15:38:49.335Z,2.75
2019-01-25T15:41:19.313Z,3.00
2019-01-25T15:43:51.563Z,2.28
2019-01-25T15:46:20.888Z,2.84
2019-01-25T15:48:51.172Z,3.02
2019-01-25T15:51:21.128Z,3.06
2019-01-25T15:53:50.316Z,2.84
2019-01-25T15:56:19.556Z,3.03
2019-01-25T15:58:50.080Z,2.98
2019-01-25T16:01:22.013Z,3.57
2019-01-25T16:03:51.504Z,2.94
2019-01-25T16:06:21.825Z,3.09
2019-01-25T16:09:02.558Z,3.45
2019-01-25T16:11:33.067Z,3.15
2019-01-25T16:14:03.604Z,2.90
2019-01-25T16:16:35.881Z,3.31
2019-01-25T16:19:05.271Z,3.36
2019-01-25T16:21:34.550Z,3.91
2019-01-25T16:24:04.521Z,3.97
2019-01-25T16:26:37.480Z,3.63
2019-01-25T16:29:07.603Z,3.43
2019-01-25T16:31:39.285Z,3.40
2019-01-25T16:34:08.504Z,3.76
2019-01-25T16:36:37.898Z,3.80
2019-01-25T16:39:09.170Z,4.20
2019-01-25T16:41:38.335Z,4.16
2019-01-25T16:44:09.117Z,3.74
2019-01-25T16:46:41.225Z,4.15
2019-01-25T16:49:23.958Z,3.91
2019-01-25T16:51:53.464Z,3.29
2019-01-25T16:54:27.469Z,3.74
2019-01-25T16:57:00.069Z,3.27
2019-01-25T16:59:37.762Z,3.46
2019-01-25T17:02:08.334Z,3.23
2019-01-25T17:04:39.259Z,3.27
2019-01-25T17:07:10.451Z,3.45
2019-01-25T17:09:41.435Z,3.11
2019-01-25T17:12:12.166Z,3.39
2019-01-25T17:14:42.589Z,3.11
2019-01-25T17:17:11.738Z,3.45
2019-01-25T17:19:44.320Z,3.43
2019-01-25T17:22:16.753Z,3.15
2019-01-25T17:24:48.855Z,2.74
2019-01-25T17:27:21.457Z,2.80
2019-01-25T17:29:50.919Z,2.84
2019-01-25T17:32:21.342Z,2.71
2019-01-25T17:34:53.379Z,2.81
2019-01-25T17:37:27.750Z,2.72
2019-01-25T17:39:56.929Z,2.90
2019-01-25T17:42:26.406Z,2.87
2019-01-25T17:44:56.022Z,2.68
2019-01-25T17:47:29.360Z,2.70
2019-01-25T17:50:01.416Z,2.50
2019-01-25T17:52:31.861Z,2.59
2019-01-25T17:55:01.290Z,2.50
2019-01-25T17:57:33.265Z,2.14
2019-01-25T18:00:04.308Z,2.61
2019-01-25T18:02:33.457Z,3.00
2019-01-25T18:05:02.609Z,2.35
2019-01-25T18:07:35.130Z,2.76
2019-01-25T18:10:07.276Z,2.93
2019-01-25T18:12:42.546Z,2.46
2019-01-25T18:15:15.578Z,1.92
2019-01-25T18:17:46.085Z,1.90
2019-01-25T18:20:16.312Z,2.02
2019-01-25T18:22:47.604Z,1.91
2019-01-25T18:25:34.655Z,1.91
2019-01-25T18:28:11.315Z,2.01
2019-01-25T18:30:49.932Z,2.01
2019-01-25T18:33:19.179Z,2.22
2019-01-25T18:35:48.327Z,2.03
2019-01-25T18:38:19.121Z,2.11
2019-01-25T18:40:48.320Z,1.98
2019-01-25T18:43:21.218Z,2.02
2019-01-25T18:45:51.632Z,2.04
2019-01-25T18:48:27.177Z,2.11
2019-01-25T18:50:56.537Z,1.69
2019-01-25T18:53:29.875Z,1.73
2019-01-25T18:55:57.072Z,1.76
2019-01-25T18:58:26.229Z,1.63
2019-01-25T19:01:03.182Z,1.88
2019-01-25T19:03:34.130Z,2.53
2019-01-25T19:06:07.715Z,1.78
2019-01-25T19:08:36.961Z,1.90
2019-01-25T19:11:06.211Z,1.63
2019-01-25T19:13:36.592Z,1.64
2019-01-25T19:16:10.132Z,1.56
2019-01-25T19:18:43.455Z,1.63
2019-01-25T19:21:11.655Z,1.61
2019-01-25T19:23:40.743Z,1.81
2019-01-25T19:26:10.170Z,1.39
2019-01-25T19:28:43.984Z,1.44
2019-01-25T19:31:19.995Z,1.34
2019-01-25T19:33:49.893Z,1.36
2019-01-25T19:36:19.922Z,1.58
2019-01-25T19:38:53.440Z,1.25
2019-01-25T19:41:25.422Z,1.51
2019-01-25T19:43:56.833Z,1.88
2019-01-25T19:49:20.180Z,1.60
2019-01-25T19:51:49.320Z,1.24
2019-01-25T19:54:19.535Z,1.50
2019-01-25T19:56:51.245Z,1.36
2019-01-25T19:59:24.304Z,1.33
2019-01-25T20:01:53.447Z,1.27
2019-01-25T20:04:23.758Z,1.80
2019-01-25T20:06:56.126Z,1.53
2019-01-25T20:09:31.001Z,1.59
2019-01-25T20:12:02.522Z,1.48
2019-01-25T20:14:31.664Z,1.50
2019-01-25T20:17:00.947Z,1.64
2019-01-25T20:19:34.598Z,1.56
2019-01-25T20:22:04.140Z,1.35
2019-01-25T20:24:36.530Z,1.48
2019-01-25T20:27:06.192Z,1.82
2019-01-25T20:29:36.849Z,1.55
2019-01-25T20:32:06.566Z,1.84
2019-01-25T20:34:38.286Z,1.80
2019-01-25T20:37:10.142Z,2.04
2019-01-25T20:39:39.429Z,2.07
2019-01-25T20:42:08.508Z,1.81
2019-01-25T20:44:38.669Z,1.99
2019-01-25T20:47:13.788Z,2.14
2019-01-25T20:49:42.987Z,1.70
2019-01-25T20:52:13.272Z,2.10
2019-01-25T20:54:52.285Z,1.59
2019-01-25T20:57:24.638Z,1.91
2019-01-25T21:00:08.578Z,2.05
2019-01-25T21:02:35.777Z,1.99
2019-01-25T21:05:05.528Z,2.14
2019-01-25T21:07:35.895Z,2.14
2019-01-25T21:10:07.168Z,2.09
2019-01-25T21:12:36.347Z,1.74
2019-01-25T21:15:08.330Z,1.73
2019-01-25T21:17:37.561Z,1.83
2019-01-25T21:20:24.717Z,1.66
2019-01-25T21:22:55.192Z,2.06
2019-01-25T21:25:24.534Z,1.58
2019-01-25T21:27:53.663Z,1.83
2019-01-25T21:30:25.236Z,1.94
2019-01-25T21:33:00.810Z,1.91
2019-01-25T21:35:30.822Z,1.71
2019-01-25T21:38:07.590Z,1.59
2019-01-25T21:40:38.684Z,1.59
2019-01-25T21:43:10.629Z,1.98
2019-01-25T21:45:43.326Z,1.62
2019-01-25T21:48:18.101Z,1.63
2019-01-25T21:50:50.863Z,1.74
2019-01-25T21:53:21.174Z,1.74
2019-01-25T21:55:50.778Z,1.62
2019-01-25T21:58:20.131Z,1.49
2019-01-25T22:00:49.269Z,1.46
2019-01-25T22:03:18.455Z,1.50
2019-01-25T22:05:50.360Z,-0.36
2019-01-25T22:08:20.876Z,1.43
2019-01-25T22:10:52.679Z,1.16
2019-01-25T22:13:25.030Z,1.60
2019-01-25T22:15:56.611Z,1.57
2019-01-25T22:18:27.221Z,1.24
2019-01-25T22:20:59.312Z,1.30
2019-01-25T22:23:28.490Z,1.33
2019-01-25T22:25:57.834Z,1.40
2019-01-25T22:28:29.159Z,1.36
2019-01-25T22:30:59.795Z,1.30
2019-01-25T22:33:29.205Z,1.04
2019-01-25T22:36:01.535Z,1.49
2019-01-25T22:38:30.845Z,1.43
2019-01-25T22:41:03.073Z,1.50
2019-01-25T22:43:32.212Z,1.09
2019-01-25T22:46:01.383Z,1.20
2019-01-25T22:48:30.498Z,0.94
2019-01-25T22:51:05.394Z,1.07
2019-01-25T22:53:38.201Z,1.14
2019-01-25T22:56:07.975Z,1.28
2019-01-25T22:58:41.976Z,1.18
2019-01-25T23:01:30.387Z,1.38
2019-01-25T23:04:27.945Z,1.32
2019-01-25T23:07:17.213Z,1.28
2019-01-25T23:09:55.127Z,1.26
2019-01-25T23:12:25.907Z,1.35
2019-01-25T23:14:55.041Z,1.19
2019-01-25T23:17:25.498Z,1.04
2019-01-25T23:19:54.617Z,1.07
2019-01-25T23:22:25.486Z,1.11
2019-01-25T23:24:57.598Z,1.18
2019-01-25T23:27:29.122Z,1.23
2019-01-25T23:29:58.597Z,0.77
2019-01-25T23:32:27.733Z,1.15
2019-01-25T23:34:58.244Z,1.18
2019-01-25T23:37:33.283Z,1.37
2019-01-25T23:40:09.143Z,1.63
2019-01-25T23:42:40.737Z,1.34
2019-01-25T23:45:12.663Z,1.80
2019-01-25T23:47:41.853Z,1.57
2019-01-25T23:50:13.377Z,1.31
2019-01-25T23:52:45.241Z,1.24
2019-01-25T23:55:18.526Z,1.32
2019-01-25T23:57:51.060Z,1.33
